createdAt,value
2023-03-31T00:00:18.741Z,2.39
2023-03-31T00:01:20.746Z,2.29
2023-03-31T00:02:22.894Z,2.25
2023-03-31T00:03:25.375Z,2.27
2023-03-31T00:04:27.680Z,2.31
2023-03-31T00:05:29.547Z,2.34
2023-03-31T00:06:38.248Z,2.28
2023-03-31T00:07:40.123Z,2.35
2023-03-31T00:08:41.916Z,2.23
2023-03-31T00:09:48.574Z,2.31
2023-03-31T00:10:50.563Z,2.20
2023-03-31T00:11:53.088Z,2.13
2023-03-31T00:12:56.416Z,2.13
2023-03-31T00:14:00.993Z,2.37
2023-03-31T00:15:03.057Z,2.20
2023-03-31T00:16:08.485Z,2.36
2023-03-31T00:17:12.198Z,2.25
2023-03-31T00:18:14.089Z,2.33
2023-03-31T00:19:20.386Z,2.26
2023-03-31T00:20:22.837Z,2.12
2023-03-31T00:21:25.569Z,2.23
2023-03-31T00:22:28.120Z,2.31
2023-03-31T00:23:30.095Z,2.27
2023-03-31T00:24:33.453Z,2.22
2023-03-31T00:25:36.024Z,2.25
2023-03-31T00:26:38.652Z,2.19
2023-03-31T00:27:44.237Z,2.04
2023-03-31T00:28:46.444Z,2.20
2023-03-31T00:29:51.156Z,2.05
2023-03-31T00:31:00.491Z,2.13
2023-03-31T00:32:02.835Z,2.07
2023-03-31T00:33:05.291Z,2.10
2023-03-31T00:34:08.960Z,2.20
2023-03-31T00:35:12.943Z,1.95
2023-03-31T00:36:21.546Z,2.05
2023-03-31T00:37:24.932Z,2.00
2023-03-31T00:38:29.182Z,2.00
2023-03-31T00:39:35.401Z,2.05
2023-03-31T00:40:45.379Z,1.96
2023-03-31T00:41:47.679Z,1.88
2023-03-31T00:42:49.963Z,1.95
2023-03-31T00:44:13.218Z,2.01
2023-03-31T00:45:15.621Z,1.99
2023-03-31T00:46:30.567Z,1.87
2023-03-31T00:47:34.618Z,1.82
2023-03-31T00:48:38.376Z,1.89
2023-03-31T00:49:45.144Z,1.89
2023-03-31T00:50:54.382Z,1.72
2023-03-31T00:52:05.728Z,1.81
2023-03-31T00:53:12.737Z,1.84
2023-03-31T00:54:15.739Z,1.98
2023-03-31T00:55:24.694Z,1.83
2023-03-31T00:56:32.163Z,1.79
2023-03-31T00:57:39.326Z,2.05
2023-03-31T00:58:44.465Z,1.82
2023-03-31T00:59:59.216Z,1.70
2023-03-31T01:01:03.488Z,1.77
2023-03-31T01:02:07.768Z,1.79
2023-03-31T01:03:10.488Z,2.04
2023-03-31T01:04:16.765Z,1.98
2023-03-31T01:05:23.431Z,2.12
2023-03-31T01:06:25.956Z,2.13
2023-03-31T01:07:42.334Z,1.94
2023-03-31T01:08:44.993Z,1.83
2023-03-31T01:09:48.634Z,1.81
2023-03-31T01:10:56.019Z,1.94
2023-03-31T01:11:58.374Z,2.00
2023-03-31T01:13:01.917Z,1.83
2023-03-31T01:14:05.246Z,1.73
2023-03-31T01:15:08.271Z,1.78
2023-03-31T01:16:10.347Z,1.79
2023-03-31T01:17:19.147Z,1.91
2023-03-31T01:18:22.610Z,2.14
2023-03-31T01:19:53.224Z,2.08
2023-03-31T01:20:57.918Z,2.08
2023-03-31T01:22:00.054Z,2.22
2023-03-31T01:23:41.092Z,2.09
2023-03-31T01:25:04.385Z,1.99
2023-03-31T01:26:48.104Z,1.88
2023-03-31T01:28:22.049Z,1.85
2023-03-31T01:29:57.799Z,1.77
2023-03-31T01:31:18.295Z,1.89
2023-03-31T01:32:20.102Z,1.88
2023-03-31T01:34:02.645Z,1.84
2023-03-31T01:35:10.434Z,1.75
2023-03-31T01:36:46.681Z,1.73
2023-03-31T01:38:14.850Z,1.69
2023-03-31T01:39:44.804Z,1.70
2023-03-31T01:40:58.180Z,1.74
2023-03-31T01:42:12.507Z,1.75
2023-03-31T01:43:25.837Z,1.79
2023-03-31T01:44:46.032Z,1.66
2023-03-31T01:46:28.713Z,1.68
2023-03-31T01:47:42.064Z,1.75
2023-03-31T01:48:51.359Z,1.68
2023-03-31T01:50:08.629Z,1.64
2023-03-31T01:51:19.656Z,1.81
2023-03-31T01:52:30.570Z,1.89
2023-03-31T01:53:50.552Z,1.67
2023-03-31T01:55:04.603Z,1.90
2023-03-31T01:56:35.025Z,1.80
2023-03-31T01:57:45.642Z,1.70
2023-03-31T01:59:00.732Z,1.70
2023-03-31T02:00:09.827Z,1.70
2023-03-31T02:01:37.457Z,1.62
2023-03-31T02:02:51.696Z,1.60
2023-03-31T02:04:07.849Z,1.65
2023-03-31T02:05:13.485Z,1.57
2023-03-31T02:06:22.061Z,1.50
2023-03-31T02:07:32.571Z,1.54
2023-03-31T02:08:41.298Z,1.54
2023-03-31T02:09:49.373Z,1.61
2023-03-31T02:10:52.992Z,1.67
2023-03-31T02:11:57.168Z,1.70
2023-03-31T02:13:01.683Z,1.66
2023-03-31T02:14:08.314Z,1.72
2023-03-31T02:15:15.381Z,1.80
2023-03-31T02:16:24.657Z,1.77
2023-03-31T02:17:32.718Z,1.97
2023-03-31T02:18:38.475Z,2.04
2023-03-31T02:19:45.434Z,1.90
2023-03-31T02:20:51.410Z,1.76
2023-03-31T02:21:55.911Z,1.72
2023-03-31T02:23:00.166Z,1.63
2023-03-31T02:24:07.803Z,1.56
2023-03-31T02:25:16.282Z,1.42
2023-03-31T02:26:25.954Z,1.66
2023-03-31T02:27:39.695Z,1.59
2023-03-31T02:28:44.075Z,1.71
2023-03-31T02:29:46.559Z,1.90
2023-03-31T02:31:12.395Z,1.75
2023-03-31T02:32:36.171Z,1.70
2023-03-31T02:33:38.862Z,1.66
2023-03-31T02:34:40.900Z,1.79
2023-03-31T02:35:43.763Z,1.65
2023-03-31T02:36:48.909Z,1.76
2023-03-31T02:37:51.722Z,1.70
2023-03-31T02:39:03.223Z,1.58
2023-03-31T02:40:12.929Z,1.66
2023-03-31T02:41:15.016Z,1.90
2023-03-31T02:42:18.080Z,1.84
2023-03-31T02:43:21.848Z,1.67
2023-03-31T02:44:26.908Z,1.64
2023-03-31T02:45:50.968Z,1.60
2023-03-31T02:46:54.407Z,1.68
2023-03-31T02:47:56.944Z,1.59
2023-03-31T02:49:03.756Z,1.65
2023-03-31T02:50:07.461Z,1.72
2023-03-31T02:51:09.418Z,1.85
2023-03-31T02:52:44.815Z,1.95
2023-03-31T02:54:08.118Z,1.78
2023-03-31T02:55:37.859Z,1.84
2023-03-31T02:56:58.312Z,1.97
2023-03-31T02:58:28.974Z,1.77
2023-03-31T02:59:49.563Z,1.85
2023-03-31T03:01:13.072Z,1.96
2023-03-31T03:02:46.466Z,1.93
2023-03-31T03:04:27.278Z,1.79
2023-03-31T03:05:46.001Z,1.72
2023-03-31T03:07:27.252Z,1.65
2023-03-31T03:08:36.164Z,1.61
2023-03-31T03:10:00.303Z,1.73
2023-03-31T03:11:04.967Z,1.68
2023-03-31T03:12:28.372Z,1.70
2023-03-31T03:13:41.300Z,1.61
2023-03-31T03:14:51.078Z,1.62
2023-03-31T03:16:03.997Z,1.59
2023-03-31T03:17:12.339Z,1.61
2023-03-31T03:18:14.493Z,1.55
2023-03-31T03:19:22.376Z,1.53
2023-03-31T03:20:24.420Z,1.62
2023-03-31T03:21:27.604Z,1.61
2023-03-31T03:22:30.566Z,1.56
2023-03-31T03:23:33.390Z,1.66
2023-03-31T03:24:35.241Z,1.60
2023-03-31T03:25:38.765Z,1.70
2023-03-31T03:26:40.510Z,1.84
2023-03-31T03:27:42.681Z,1.73
2023-03-31T03:28:45.709Z,1.89
2023-03-31T03:29:47.636Z,1.91
2023-03-31T03:30:51.130Z,1.75
2023-03-31T03:31:53.916Z,1.96
2023-03-31T03:32:56.200Z,2.15
2023-03-31T03:34:01.218Z,2.09
2023-03-31T03:35:06.206Z,1.83
2023-03-31T03:36:09.436Z,1.76
2023-03-31T03:37:11.779Z,1.87
2023-03-31T03:38:13.672Z,1.77
2023-03-31T03:39:17.693Z,1.58
2023-03-31T03:40:20.521Z,1.68
2023-03-31T03:41:22.325Z,1.90
2023-03-31T03:42:24.249Z,1.95
2023-03-31T03:43:26.639Z,1.84
2023-03-31T03:44:28.540Z,1.74
2023-03-31T03:45:30.611Z,1.64
2023-03-31T03:46:32.852Z,1.64
2023-03-31T03:47:36.277Z,1.73
2023-03-31T03:48:39.354Z,1.62
2023-03-31T03:49:41.241Z,1.49
2023-03-31T03:50:43.060Z,1.58
2023-03-31T03:51:44.817Z,1.47
2023-03-31T03:52:46.949Z,1.42
2023-03-31T03:53:48.903Z,1.59
2023-03-31T03:54:50.795Z,1.56
2023-03-31T03:55:52.640Z,1.66
2023-03-31T03:56:54.894Z,1.74
2023-03-31T03:57:56.914Z,1.98
2023-03-31T03:58:58.791Z,1.74
2023-03-31T04:00:00.670Z,1.67
2023-03-31T04:01:02.584Z,1.57
2023-03-31T04:02:04.503Z,1.40
2023-03-31T04:03:06.574Z,1.43
2023-03-31T04:04:08.418Z,1.42
2023-03-31T04:05:10.426Z,1.45
2023-03-31T04:06:12.558Z,1.58
2023-03-31T04:07:16.287Z,1.49
2023-03-31T04:08:19.345Z,1.59
2023-03-31T04:09:21.214Z,1.64
2023-03-31T04:10:23.013Z,1.65
2023-03-31T04:11:25.245Z,1.64
2023-03-31T04:12:27.119Z,1.64
2023-03-31T04:13:29.604Z,1.62
2023-03-31T04:14:31.723Z,1.80
2023-03-31T04:15:34.331Z,1.63
2023-03-31T04:16:36.372Z,1.55
2023-03-31T04:17:39.949Z,1.73
2023-03-31T04:18:42.874Z,1.70
2023-03-31T04:19:45.000Z,1.67
2023-03-31T04:20:54.898Z,1.72
2023-03-31T04:22:02.896Z,1.62
2023-03-31T04:23:09.953Z,1.73
2023-03-31T04:24:16.261Z,1.69
2023-03-31T04:25:18.502Z,1.61
2023-03-31T04:26:26.791Z,1.78
2023-03-31T04:27:28.890Z,1.81
2023-03-31T04:28:35.898Z,1.60
2023-03-31T04:29:38.173Z,1.63
2023-03-31T04:30:41.644Z,1.78
2023-03-31T04:31:44.162Z,1.78
2023-03-31T04:32:46.763Z,1.64
2023-03-31T04:33:50.739Z,1.60
2023-03-31T04:35:02.617Z,1.50
2023-03-31T04:36:20.596Z,1.46
2023-03-31T04:37:28.332Z,1.44
2023-03-31T04:38:33.722Z,1.48
2023-03-31T04:39:38.106Z,1.44
2023-03-31T04:40:41.577Z,1.36
2023-03-31T04:41:43.822Z,1.31
2023-03-31T04:42:45.644Z,1.36
2023-03-31T04:43:47.975Z,1.30
2023-03-31T04:44:51.180Z,1.34
2023-03-31T04:45:54.708Z,1.36
2023-03-31T04:47:01.220Z,1.41
2023-03-31T04:48:03.418Z,1.44
2023-03-31T04:49:05.986Z,1.50
2023-03-31T04:50:09.714Z,1.46
2023-03-31T04:51:15.756Z,1.50
2023-03-31T04:52:18.121Z,1.49
2023-03-31T04:53:20.056Z,1.36
2023-03-31T04:54:25.430Z,1.60
2023-03-31T04:55:32.206Z,1.57
2023-03-31T04:56:35.792Z,1.57
2023-03-31T04:57:43.519Z,1.48
2023-03-31T04:58:46.591Z,1.46
2023-03-31T04:59:49.728Z,1.58
2023-03-31T05:00:53.927Z,1.72
2023-03-31T05:01:56.124Z,1.89
2023-03-31T05:03:02.792Z,2.09
2023-03-31T05:04:05.715Z,1.97
2023-03-31T05:05:11.098Z,1.86
2023-03-31T05:06:18.636Z,1.68
2023-03-31T05:07:21.405Z,1.75
2023-03-31T05:08:27.505Z,1.50
2023-03-31T05:09:29.589Z,1.60
2023-03-31T05:10:34.510Z,1.68
2023-03-31T05:11:36.863Z,1.72
2023-03-31T05:12:41.123Z,1.72
2023-03-31T05:13:44.348Z,1.75
2023-03-31T05:14:48.903Z,1.54
2023-03-31T05:15:53.921Z,1.72
2023-03-31T05:16:58.238Z,1.77
2023-03-31T05:18:03.513Z,1.81
2023-03-31T05:19:06.483Z,1.60
2023-03-31T05:20:24.415Z,1.67
2023-03-31T05:21:50.452Z,1.78
2023-03-31T05:22:52.454Z,1.85
2023-03-31T05:23:54.412Z,2.07
2023-03-31T05:24:56.352Z,2.09
2023-03-31T05:25:58.215Z,2.08
2023-03-31T05:27:05.007Z,2.04
2023-03-31T05:28:07.020Z,1.87
2023-03-31T05:29:10.624Z,2.03
2023-03-31T05:30:13.250Z,2.11
2023-03-31T05:31:15.966Z,2.06
2023-03-31T05:32:17.741Z,2.04
2023-03-31T05:33:19.694Z,2.11
2023-03-31T05:34:21.624Z,2.02
2023-03-31T05:35:25.847Z,2.00
2023-03-31T05:36:27.612Z,2.02
2023-03-31T05:37:29.475Z,1.98
2023-03-31T05:38:31.824Z,2.07
2023-03-31T05:39:33.806Z,2.34
2023-03-31T05:40:35.992Z,2.17
2023-03-31T05:41:39.257Z,2.07
2023-03-31T05:42:42.005Z,2.04
2023-03-31T05:43:44.176Z,2.02
2023-03-31T05:44:47.040Z,2.24
2023-03-31T05:45:49.064Z,2.48
2023-03-31T05:46:51.231Z,2.62
2023-03-31T05:47:53.302Z,2.71
2023-03-31T05:48:56.682Z,2.78
2023-03-31T05:49:58.812Z,2.93
2023-03-31T05:51:01.813Z,3.00
2023-03-31T05:52:03.624Z,2.60
2023-03-31T05:53:05.530Z,2.44
2023-03-31T05:54:08.016Z,2.28
2023-03-31T05:55:10.503Z,2.26
2023-03-31T05:56:13.792Z,2.18
2023-03-31T05:57:15.717Z,2.44
2023-03-31T05:58:17.622Z,2.37
2023-03-31T05:59:20.364Z,2.51
2023-03-31T06:00:22.956Z,2.31
2023-03-31T06:01:26.533Z,2.41
2023-03-31T06:02:28.784Z,2.34
2023-03-31T06:03:30.741Z,2.67
2023-03-31T06:04:35.965Z,2.65
2023-03-31T06:05:38.094Z,2.71
2023-03-31T06:06:40.019Z,2.67
2023-03-31T06:07:41.889Z,2.72
2023-03-31T06:08:46.302Z,2.62
2023-03-31T06:09:48.219Z,2.78
2023-03-31T06:10:51.245Z,2.74
2023-03-31T06:11:53.000Z,2.62
2023-03-31T06:12:55.044Z,2.71
2023-03-31T06:13:56.860Z,2.54
2023-03-31T06:14:58.766Z,2.41
2023-03-31T06:16:01.335Z,2.49
2023-03-31T06:17:06.187Z,2.41
2023-03-31T06:18:10.671Z,2.32
2023-03-31T06:19:12.612Z,2.31
2023-03-31T06:20:27.187Z,2.32
2023-03-31T06:21:30.134Z,2.30
2023-03-31T06:22:32.138Z,2.56
2023-03-31T06:23:34.671Z,2.74
2023-03-31T06:24:36.483Z,2.66
2023-03-31T06:25:50.385Z,2.59
2023-03-31T06:26:55.601Z,2.67
2023-03-31T06:27:58.472Z,2.69
2023-03-31T06:29:00.417Z,2.41
2023-03-31T06:30:02.326Z,2.47
2023-03-31T06:31:07.753Z,2.44
2023-03-31T06:32:11.896Z,2.39
2023-03-31T06:33:14.814Z,2.38
2023-03-31T06:34:21.356Z,2.20
2023-03-31T06:35:28.140Z,2.15
2023-03-31T06:38:15.322Z,2.22
2023-03-31T06:39:18.262Z,2.27
2023-03-31T06:40:21.974Z,2.40
2023-03-31T06:41:27.625Z,2.44
2023-03-31T06:42:33.391Z,2.41
2023-03-31T06:43:35.620Z,2.39
2023-03-31T06:44:39.238Z,2.39
2023-03-31T06:45:41.660Z,2.59
2023-03-31T06:46:44.346Z,2.55
2023-03-31T06:47:46.424Z,2.55
2023-03-31T06:48:50.266Z,2.57
2023-03-31T06:49:52.115Z,2.75
2023-03-31T06:50:55.607Z,2.76
2023-03-31T06:52:02.094Z,3.04
2023-03-31T06:53:04.747Z,3.13
2023-03-31T06:54:12.802Z,3.12
2023-03-31T06:55:17.190Z,3.08
2023-03-31T06:56:20.092Z,2.98
2023-03-31T06:57:22.326Z,2.99
2023-03-31T06:58:24.630Z,2.99
2023-03-31T06:59:26.686Z,2.97
2023-03-31T07:00:29.238Z,2.99
2023-03-31T07:01:31.926Z,3.15
2023-03-31T07:02:34.365Z,3.21
2023-03-31T07:03:36.472Z,3.14
2023-03-31T07:04:40.011Z,3.22
2023-03-31T07:05:41.998Z,3.18
2023-03-31T07:06:44.968Z,3.22
2023-03-31T07:07:47.502Z,3.13
2023-03-31T07:08:49.781Z,3.13
2023-03-31T07:09:56.155Z,2.94
2023-03-31T07:11:00.576Z,2.98
2023-03-31T07:12:05.409Z,2.95
2023-03-31T07:13:07.840Z,2.96
2023-03-31T07:14:10.281Z,3.06
2023-03-31T07:15:12.495Z,3.02
2023-03-31T07:16:14.336Z,2.89
2023-03-31T07:17:17.341Z,2.90
2023-03-31T07:18:26.075Z,3.05
2023-03-31T07:19:29.271Z,3.06
2023-03-31T07:20:33.419Z,3.03
2023-03-31T07:21:35.456Z,3.03
2023-03-31T07:22:38.758Z,3.10
2023-03-31T07:23:40.674Z,3.32
2023-03-31T07:24:44.616Z,3.13
2023-03-31T07:25:47.006Z,3.45
2023-03-31T07:26:49.379Z,3.30
2023-03-31T07:27:51.669Z,3.54
2023-03-31T07:28:56.883Z,3.73
2023-03-31T07:29:59.119Z,3.68
2023-03-31T07:31:01.989Z,3.57
2023-03-31T07:32:07.682Z,3.45
2023-03-31T07:33:10.591Z,3.34
2023-03-31T07:34:13.922Z,3.04
2023-03-31T07:35:17.002Z,2.90
2023-03-31T07:36:19.319Z,2.93
2023-03-31T07:37:21.637Z,2.98
2023-03-31T07:38:25.157Z,2.97
2023-03-31T07:39:29.522Z,3.04
2023-03-31T07:40:32.566Z,3.07
2023-03-31T07:41:36.717Z,3.18
2023-03-31T07:42:41.033Z,3.12
2023-03-31T07:43:44.880Z,3.22
2023-03-31T07:44:47.984Z,3.21
2023-03-31T07:45:50.055Z,3.41
2023-03-31T07:46:51.923Z,3.38
2023-03-31T07:47:54.242Z,3.47
2023-03-31T07:48:58.367Z,3.40
2023-03-31T07:50:00.812Z,3.55
2023-03-31T07:51:03.382Z,3.74
2023-03-31T07:52:09.643Z,3.95
2023-03-31T07:53:15.585Z,3.66
2023-03-31T07:54:17.654Z,3.83
2023-03-31T07:55:21.515Z,3.91
2023-03-31T07:56:25.749Z,3.63
2023-03-31T07:57:33.437Z,3.68
2023-03-31T07:58:35.902Z,3.84
2023-03-31T07:59:43.584Z,3.82
2023-03-31T08:00:46.943Z,3.79
2023-03-31T08:01:51.713Z,3.55
2023-03-31T08:02:54.134Z,3.54
2023-03-31T08:03:59.490Z,3.44
2023-03-31T08:05:04.085Z,3.40
2023-03-31T08:06:07.084Z,3.52
2023-03-31T08:07:14.350Z,3.67
2023-03-31T08:08:17.401Z,3.48
2023-03-31T08:09:20.804Z,3.36
2023-03-31T08:10:27.633Z,3.19
2023-03-31T08:11:32.326Z,3.51
2023-03-31T08:12:34.248Z,3.44
2023-03-31T08:13:38.732Z,3.57
2023-03-31T08:14:42.532Z,3.77
2023-03-31T08:15:45.102Z,3.72
2023-03-31T08:16:49.230Z,3.76
2023-03-31T08:17:55.444Z,3.42
2023-03-31T08:18:59.207Z,3.35
2023-03-31T08:20:05.380Z,3.61
2023-03-31T08:21:11.826Z,3.80
2023-03-31T08:22:14.002Z,3.80
2023-03-31T08:23:16.811Z,3.80
2023-03-31T08:24:21.826Z,3.81
2023-03-31T08:25:24.103Z,3.71
2023-03-31T08:26:26.300Z,3.58
2023-03-31T08:27:29.052Z,3.71
2023-03-31T08:28:31.078Z,3.69
2023-03-31T08:29:34.160Z,3.53
2023-03-31T08:30:38.914Z,3.94
2023-03-31T08:31:41.039Z,3.84
2023-03-31T08:32:43.483Z,3.58
2023-03-31T08:33:47.236Z,3.61
2023-03-31T08:34:51.987Z,3.65
2023-03-31T08:35:54.186Z,3.55
2023-03-31T08:37:04.605Z,3.62
2023-03-31T08:38:07.884Z,3.81
2023-03-31T08:39:18.807Z,3.60
2023-03-31T08:40:29.719Z,3.64
2023-03-31T08:41:45.513Z,3.63
2023-03-31T08:42:56.073Z,3.67
2023-03-31T08:44:01.640Z,3.85
2023-03-31T08:45:22.393Z,3.94
2023-03-31T08:46:29.318Z,3.91
2023-03-31T08:47:35.162Z,4.02
2023-03-31T08:48:54.367Z,3.74
2023-03-31T08:50:05.471Z,3.82
2023-03-31T08:51:24.507Z,3.82
2023-03-31T08:52:41.088Z,3.84
2023-03-31T08:54:06.466Z,3.93
2023-03-31T08:55:17.869Z,4.18
2023-03-31T08:56:24.107Z,4.01
2023-03-31T08:57:32.971Z,3.75
2023-03-31T08:58:50.069Z,4.00
2023-03-31T08:59:52.708Z,3.95
2023-03-31T09:01:00.414Z,3.90
2023-03-31T09:02:34.174Z,3.80
2023-03-31T09:03:47.579Z,3.75
2023-03-31T09:05:01.852Z,3.58
2023-03-31T09:06:13.312Z,3.77
2023-03-31T09:07:34.850Z,3.56
2023-03-31T09:08:41.161Z,3.49
2023-03-31T09:10:11.092Z,3.42
2023-03-31T09:11:13.252Z,3.43
2023-03-31T09:12:24.385Z,3.66
2023-03-31T09:13:45.250Z,3.68
2023-03-31T09:15:10.443Z,3.58
2023-03-31T09:16:16.764Z,3.53
2023-03-31T09:17:26.973Z,3.66
2023-03-31T09:18:48.692Z,3.69
2023-03-31T09:20:47.616Z,3.84
2023-03-31T09:22:33.005Z,3.76
2023-03-31T09:24:14.113Z,3.74
2023-03-31T09:25:24.396Z,3.84
2023-03-31T09:26:55.350Z,3.77
2023-03-31T09:28:03.130Z,3.68
2023-03-31T09:29:19.636Z,3.70
2023-03-31T09:30:34.494Z,3.78
2023-03-31T09:31:39.078Z,3.83
2023-03-31T09:32:41.893Z,4.14
2023-03-31T09:33:48.277Z,4.11
2023-03-31T09:34:58.738Z,4.12
2023-03-31T09:36:20.954Z,3.99
2023-03-31T09:37:35.325Z,3.81
2023-03-31T09:39:07.524Z,3.78
2023-03-31T09:40:18.133Z,3.70
2023-03-31T09:41:25.318Z,3.66
2023-03-31T09:42:29.231Z,3.65
2023-03-31T09:43:38.591Z,3.53
2023-03-31T09:44:47.591Z,3.73
2023-03-31T09:47:05.545Z,3.68
2023-03-31T09:48:19.381Z,3.79
2023-03-31T09:49:27.775Z,4.03
2023-03-31T09:50:34.015Z,3.77
2023-03-31T09:51:45.360Z,3.75
2023-03-31T09:52:56.624Z,3.69
2023-03-31T09:54:16.948Z,3.75
2023-03-31T09:55:49.593Z,3.74
2023-03-31T09:57:03.317Z,3.77
2023-03-31T09:58:21.173Z,3.70
2023-03-31T09:59:39.207Z,3.79
2023-03-31T10:01:04.644Z,3.85
2023-03-31T10:02:26.635Z,3.86
2023-03-31T10:03:39.347Z,3.95
2023-03-31T10:04:48.731Z,4.03
2023-03-31T10:05:57.099Z,3.74
2023-03-31T10:07:01.422Z,3.90
2023-03-31T10:08:13.813Z,3.74
2023-03-31T10:09:25.834Z,3.75
2023-03-31T10:10:38.406Z,3.66
2023-03-31T10:11:53.560Z,3.62
2023-03-31T10:13:01.359Z,3.50
2023-03-31T10:14:37.657Z,3.65
2023-03-31T10:15:42.249Z,3.76
2023-03-31T10:17:02.771Z,3.96
2023-03-31T10:18:06.781Z,3.97
2023-03-31T10:19:36.256Z,4.05
2023-03-31T10:20:50.903Z,3.93
2023-03-31T10:22:19.723Z,3.81
2023-03-31T10:23:31.499Z,3.98
2023-03-31T10:24:44.514Z,3.92
2023-03-31T10:25:51.740Z,3.78
2023-03-31T10:27:04.767Z,3.72
2023-03-31T10:28:26.404Z,4.03
2023-03-31T10:29:35.382Z,4.05
2023-03-31T10:33:01.542Z,3.99
2023-03-31T10:34:15.757Z,3.87
2023-03-31T10:35:30.318Z,3.79
2023-03-31T10:36:41.912Z,3.91
2023-03-31T10:38:19.292Z,3.94
2023-03-31T10:39:33.106Z,3.98
2023-03-31T10:40:53.175Z,4.05
2023-03-31T10:42:05.529Z,3.85
2023-03-31T10:43:26.432Z,3.73
2023-03-31T10:46:58.935Z,3.83
2023-03-31T10:48:25.215Z,3.76
2023-03-31T10:49:37.690Z,3.65
2023-03-31T10:50:43.514Z,3.52
2023-03-31T10:51:57.289Z,3.60
2023-03-31T10:53:21.450Z,3.58
2023-03-31T10:54:29.495Z,3.57
2023-03-31T10:55:56.015Z,3.74
2023-03-31T10:57:06.752Z,3.60
2023-03-31T10:59:05.289Z,3.47
2023-03-31T11:00:34.226Z,3.51
2023-03-31T11:02:23.663Z,3.73
2023-03-31T11:04:28.336Z,3.71
2023-03-31T11:05:42.821Z,3.66
2023-03-31T11:07:26.108Z,3.65
2023-03-31T11:08:45.806Z,3.76
2023-03-31T11:10:25.409Z,4.00
2023-03-31T11:12:05.939Z,3.88
2023-03-31T11:13:37.056Z,4.03
2023-03-31T11:15:00.170Z,3.85
2023-03-31T11:16:13.633Z,3.87
2023-03-31T11:19:15.350Z,4.08
2023-03-31T11:20:30.899Z,4.21
2023-03-31T11:22:13.416Z,4.01
2023-03-31T11:23:29.107Z,4.00
2023-03-31T11:25:06.789Z,4.10
2023-03-31T11:26:29.168Z,4.29
2023-03-31T11:28:17.598Z,4.20
2023-03-31T11:29:33.239Z,4.12
2023-03-31T11:31:01.669Z,4.21
2023-03-31T11:32:52.627Z,3.94
2023-03-31T11:34:23.457Z,3.99
2023-03-31T11:35:46.095Z,4.13
2023-03-31T11:37:34.391Z,4.04
2023-03-31T11:39:06.296Z,3.93
2023-03-31T11:40:35.664Z,3.87
2023-03-31T11:42:16.514Z,3.96
2023-03-31T11:43:36.584Z,3.97
2023-03-31T11:44:46.656Z,4.02
2023-03-31T11:45:57.340Z,4.06
2023-03-31T11:47:07.748Z,3.97
2023-03-31T11:48:37.328Z,3.87
2023-03-31T11:49:46.429Z,3.94
2023-03-31T11:50:51.012Z,4.23
2023-03-31T11:52:12.553Z,4.19
2023-03-31T11:53:27.200Z,3.96
2023-03-31T11:54:56.019Z,4.05
2023-03-31T11:56:07.851Z,3.97
2023-03-31T11:57:24.880Z,4.08
2023-03-31T11:58:58.756Z,4.20
2023-03-31T12:00:34.983Z,4.09
2023-03-31T12:02:23.338Z,3.81
2023-03-31T12:04:15.755Z,3.85
2023-03-31T12:05:28.710Z,4.07
2023-03-31T12:06:42.722Z,3.92
2023-03-31T12:07:56.395Z,3.89
2023-03-31T12:09:24.262Z,3.71
2023-03-31T12:10:34.072Z,3.80
2023-03-31T12:12:18.173Z,3.79
2023-03-31T12:13:36.234Z,3.82
2023-03-31T12:15:12.080Z,3.83
2023-03-31T12:17:18.503Z,3.83
2023-03-31T12:23:14.656Z,3.82
2023-03-31T12:24:46.179Z,3.75
2023-03-31T12:26:58.964Z,3.52
2023-03-31T12:28:18.772Z,3.71
2023-03-31T12:29:39.329Z,3.80
2023-03-31T12:30:50.067Z,3.72
2023-03-31T12:32:05.939Z,3.68
2023-03-31T12:33:44.401Z,3.67
2023-03-31T12:34:58.853Z,3.69
2023-03-31T12:39:08.862Z,3.70
2023-03-31T12:40:53.036Z,3.69
2023-03-31T12:42:13.678Z,3.79
2023-03-31T12:43:52.003Z,3.80
2023-03-31T12:45:11.431Z,3.87
2023-03-31T12:57:18.941Z,3.55
2023-03-31T12:59:40.123Z,3.70
2023-03-31T13:01:26.816Z,3.65
2023-03-31T13:03:02.491Z,3.64
2023-03-31T13:04:37.060Z,3.69
2023-03-31T13:11:12.603Z,3.46
2023-03-31T13:12:41.607Z,3.54
2023-03-31T13:14:08.934Z,3.55
2023-03-31T13:15:54.947Z,3.57
2023-03-31T13:17:29.524Z,3.72
2023-03-31T13:18:37.897Z,3.65
2023-03-31T13:19:51.772Z,3.55
2023-03-31T13:21:05.864Z,3.70
2023-03-31T13:22:29.557Z,3.73
2023-03-31T13:23:37.184Z,3.59
2023-03-31T13:24:42.040Z,3.72
2023-03-31T13:25:48.865Z,3.63
2023-03-31T13:26:54.881Z,3.50
2023-03-31T13:27:59.760Z,3.49
2023-03-31T13:29:23.427Z,3.56
2023-03-31T13:30:37.474Z,3.74
2023-03-31T13:32:21.566Z,3.72
2023-03-31T13:33:27.257Z,3.64
2023-03-31T13:34:46.748Z,3.49
2023-03-31T13:36:10.022Z,3.53
2023-03-31T13:37:37.859Z,3.42
2023-03-31T13:38:59.246Z,3.42
2023-03-31T13:41:01.386Z,3.42
2023-03-31T13:42:44.390Z,3.32
2023-03-31T13:44:29.825Z,3.47
2023-03-31T13:45:58.264Z,3.37
2023-03-31T13:47:49.975Z,3.40
2023-03-31T13:49:14.979Z,3.40
2023-03-31T13:51:15.227Z,3.27
2023-03-31T13:53:23.595Z,3.33
2023-03-31T13:55:21.760Z,3.38
2023-03-31T13:56:51.554Z,3.37
2023-03-31T13:58:29.922Z,3.29
2023-03-31T14:01:21.478Z,3.37
2023-03-31T14:03:05.368Z,3.25
2023-03-31T14:04:44.758Z,3.31
2023-03-31T14:06:40.422Z,3.42
2023-03-31T14:07:52.583Z,3.51
2023-03-31T14:09:23.374Z,3.41
2023-03-31T14:10:43.890Z,3.24
2023-03-31T14:11:56.817Z,3.28
2023-03-31T14:13:20.068Z,3.26
2023-03-31T14:14:56.247Z,3.24
2023-03-31T14:16:04.959Z,3.33
2023-03-31T14:17:12.619Z,3.46
2023-03-31T14:18:34.706Z,3.42
2023-03-31T14:21:55.660Z,3.37
2023-03-31T14:22:59.177Z,3.32
2023-03-31T14:24:10.215Z,3.36
2023-03-31T14:25:42.995Z,3.34
2023-03-31T14:27:07.596Z,3.34
2023-03-31T14:28:36.186Z,3.40
2023-03-31T14:29:47.549Z,3.38
2023-03-31T14:31:20.358Z,3.36
2023-03-31T14:32:42.692Z,3.29
2023-03-31T14:33:47.915Z,3.29
2023-03-31T14:34:54.378Z,3.38
2023-03-31T14:36:08.894Z,3.36
2023-03-31T14:37:22.391Z,3.42
2023-03-31T14:38:29.768Z,3.43
2023-03-31T14:39:45.491Z,3.43
2023-03-31T14:40:52.032Z,3.34
2023-03-31T14:41:58.368Z,3.48
2023-03-31T14:43:01.620Z,3.46
2023-03-31T14:44:09.428Z,3.51
2023-03-31T14:45:25.469Z,3.48
2023-03-31T14:46:35.409Z,3.48
2023-03-31T14:47:39.985Z,3.36
2023-03-31T14:50:48.444Z,3.40
2023-03-31T14:52:04.543Z,3.40
2023-03-31T14:53:15.554Z,3.46
2023-03-31T14:54:23.588Z,3.32
2023-03-31T14:55:39.480Z,3.36
2023-03-31T14:56:58.845Z,3.36
2023-03-31T14:58:02.478Z,3.46
2023-03-31T14:59:07.633Z,3.43
2023-03-31T15:00:15.771Z,3.36
2023-03-31T15:01:25.898Z,3.19
2023-03-31T15:02:37.554Z,3.30
2023-03-31T15:03:41.948Z,3.41
2023-03-31T15:04:46.722Z,3.49
2023-03-31T15:05:52.584Z,3.44
2023-03-31T15:06:56.396Z,3.41
2023-03-31T15:08:13.585Z,3.41
2023-03-31T15:09:33.628Z,3.35
2023-03-31T15:10:42.710Z,3.45
2023-03-31T15:11:54.681Z,3.41
2023-03-31T15:12:57.500Z,3.39
2023-03-31T15:14:05.258Z,3.44
2023-03-31T15:15:11.123Z,3.46
2023-03-31T15:16:44.102Z,3.46
2023-03-31T15:17:48.463Z,3.40
2023-03-31T15:18:55.357Z,3.34
2023-03-31T15:20:02.670Z,3.34
2023-03-31T15:21:05.298Z,3.22
2023-03-31T15:22:19.118Z,3.25
2023-03-31T15:23:30.173Z,3.38
2023-03-31T15:24:34.806Z,3.29
2023-03-31T15:25:43.726Z,3.30
2023-03-31T15:26:58.103Z,3.30
2023-03-31T15:28:07.052Z,3.27
2023-03-31T15:29:21.289Z,3.19
2023-03-31T15:30:25.608Z,3.18
2023-03-31T15:31:30.929Z,3.15
2023-03-31T15:32:37.899Z,3.20
2023-03-31T15:33:44.580Z,3.22
2023-03-31T15:34:48.050Z,3.35
2023-03-31T15:35:50.196Z,3.35
2023-03-31T15:36:55.150Z,3.30
2023-03-31T15:37:59.435Z,3.34
2023-03-31T15:39:01.426Z,3.27
2023-03-31T15:40:09.425Z,3.20
2023-03-31T15:41:13.885Z,3.23
2023-03-31T15:42:16.112Z,3.30
2023-03-31T15:43:32.514Z,3.29
2023-03-31T15:44:44.211Z,3.32
2023-03-31T15:45:57.284Z,3.28
2023-03-31T15:47:02.103Z,3.20
2023-03-31T15:48:06.296Z,3.21
2023-03-31T15:49:27.257Z,3.24
2023-03-31T15:50:34.637Z,3.33
2023-03-31T15:51:44.639Z,3.35
2023-03-31T15:52:53.845Z,3.18
2023-03-31T15:54:00.329Z,3.16
2023-03-31T15:55:34.139Z,3.18
2023-03-31T15:57:04.937Z,3.14
2023-03-31T15:58:13.264Z,3.14
2023-03-31T15:59:34.192Z,3.18
2023-03-31T16:00:47.973Z,3.23
2023-03-31T16:01:52.136Z,3.27
2023-03-31T16:02:58.013Z,3.26
2023-03-31T16:04:02.860Z,3.29
2023-03-31T16:05:10.822Z,3.21
2023-03-31T16:06:34.784Z,3.20
2023-03-31T16:07:36.904Z,3.42
2023-03-31T16:08:43.812Z,3.26
2023-03-31T16:09:49.460Z,3.13
2023-03-31T16:10:58.929Z,3.14
2023-03-31T16:12:04.075Z,3.22
2023-03-31T16:13:11.877Z,3.20
2023-03-31T16:14:18.272Z,3.19
2023-03-31T16:15:30.677Z,3.22
2023-03-31T16:16:37.317Z,3.29
2023-03-31T16:18:11.309Z,3.15
2023-03-31T16:19:15.246Z,3.14
2023-03-31T16:20:41.665Z,3.15
2023-03-31T16:21:59.676Z,3.05
2023-03-31T16:23:54.878Z,3.09
2023-03-31T16:25:47.552Z,3.14
2023-03-31T16:27:05.437Z,3.14
2023-03-31T16:28:33.401Z,3.20
2023-03-31T16:29:44.439Z,3.12